Time;durP1;ratioP1;P1;durP2;ratioP2;P2;SDS_P1;SDS_P2;PMS_P1;PMS_P2;Temp;Humidity;BMP_temperature;BMP_pressure;BME280_temperature;BME280_humidity;BME280_pressure;Samples;Min_cycle;Max_cycle;Signal;HPM_P1;HPM_P2
2022/10/26 00:01:22;;;;;;;10.35;2.28;;;;;;;;;;4958461;28;20105;-71
2022/10/26 00:03:55;;;;;;;7.13;2.35;;;;;;;;;;4990850;28;20058;-70
2022/10/26 00:06:27;;;;;;;7.47;3.05;;;;;;;;;;5005690;28;20065;-71
2022/10/26 00:08:58;;;;;;;6.72;2.55;;;;;;;;;;4978046;28;20046;-71
2022/10/26 00:11:27;;;;;;;15.20;3.00;;;;;;;;;;5018849;28;20059;-70
2022/10/26 00:13:57;;;;;;;9.98;3.00;;;;;;;;;;5049471;28;20435;-71
2022/10/26 00:16:28;;;;;;;10.75;3.17;;;;;;;;;;5049905;28;20627;-70
2022/10/26 00:18:58;;;;;;;7.00;2.80;;;;;;;;;;5010088;28;20050;-70
2022/10/26 00:21:28;;;;;;;8.07;2.88;;;;;;;;;;5009933;28;20057;-70
2022/10/26 00:23:59;;;;;;;12.25;2.75;;;;;;;;;;5010044;28;20065;-70
2022/10/26 00:26:29;;;;;;;10.60;2.63;;;;;;;;;;5010019;28;20070;-70
2022/10/26 00:29:00;;;;;;;10.70;2.75;;;;;;;;;;4990370;28;20674;-70
2022/10/26 00:31:30;;;;;;;14.38;3.53;;;;;;;;;;4990322;28;20062;-70
2022/10/26 00:34:00;;;;;;;9.45;3.35;;;;;;;;;;4970672;28;20055;-70
2022/10/26 00:36:30;;;;;;;12.73;3.45;;;;;;;;;;4970840;28;20063;-70
2022/10/26 00:38:59;;;;;;;11.85;4.20;;;;;;;;;;4990069;28;20425;-71
2022/10/26 00:41:33;;;;;;;12.60;3.78;;;;;;;;;;4990236;28;20438;-70
2022/10/26 00:44:41;;;;;;;13.27;3.40;;;;;;;;;;4951315;28;20062;-70
2022/10/26 00:47:20;;;;;;;8.32;3.83;;;;;;;;;;4951620;28;20185;-70
2022/10/26 00:49:54;;;;;;;8.60;3.75;;;;;;;;;;4951417;28;20047;-70
2022/10/26 00:52:24;;;;;;;9.60;4.10;;;;;;;;;;4951457;28;20051;-69
2022/10/26 00:54:55;;;;;;;11.25;3.65;;;;;;;;;;4951335;28;20480;-69
2022/10/26 00:57:26;;;;;;;12.10;3.45;;;;;;;;;;4935309;28;20511;-70
2022/10/26 00:59:58;;;;;;;11.07;3.03;;;;;;;;;;4951332;28;20056;-70
2022/10/26 01:02:29;;;;;;;7.30;3.17;;;;;;;;;;4935212;29;20059;-70
2022/10/26 01:05:00;;;;;;;13.60;3.13;;;;;;;;;;4951331;28;20055;-71
2022/10/26 01:07:31;;;;;;;12.80;3.42;;;;;;;;;;4951442;28;20475;-71
2022/10/26 01:10:02;;;;;;;12.63;3.50;;;;;;;;;;4951258;28;20070;-70
2022/10/26 01:12:32;;;;;;;10.13;3.70;;;;;;;;;;4934738;29;20056;-69
2022/10/26 01:15:02;;;;;;;12.57;3.22;;;;;;;;;;4932336;29;20059;-70
2022/10/26 01:17:46;;;;;;;7.97;2.67;;;;;;;;;;4960227;28;20082;-70
2022/10/26 01:20:31;;;;;;;10.43;2.80;;;;;;;;;;4973575;28;20058;-70
2022/10/26 01:23:26;;;;;;;9.00;3.60;;;;;;;;;;5031753;28;20048;-70
2022/10/26 01:26:08;;;;;;;18.80;3.58;;;;;;;;;;5029136;28;20054;-70
2022/10/26 01:28:59;;;;;;;11.70;3.42;;;;;;;;;;4973868;28;20058;-69
2022/10/26 01:31:40;;;;;;;12.98;3.80;;;;;;;;;;4926823;28;20051;-70
2022/10/26 01:34:20;;;;;;;8.25;3.67;;;;;;;;;;4974193;28;20062;-70
2022/10/26 01:37:02;;;;;;;10.25;3.90;;;;;;;;;;4974060;28;20054;-70
2022/10/26 01:39:34;;;;;;;12.25;3.95;;;;;;;;;;4957873;28;20057;-70
2022/10/26 01:42:05;;;;;;;;;;;;;;;;;;4926411;28;20446;-69
2022/10/26 01:44:42;;;;;;;10.98;3.33;;;;;;;;;;4957998;28;19922;-70
2022/10/26 01:47:16;;;;;;;9.18;3.45;;;;;;;;;;4957852;28;20066;-70
2022/10/26 01:49:54;;;;;;;8.38;3.20;;;;;;;;;;4935053;29;20420;-69
2022/10/26 01:52:25;;;;;;;11.18;3.13;;;;;;;;;;4900348;29;20516;-70
2022/10/26 01:55:20;;;;;;;8.77;3.20;;;;;;;;;;4885057;29;20083;-70
2022/10/26 01:57:51;;;;;;;10.95;3.30;;;;;;;;;;4916812;29;20558;-70
2022/10/26 02:00:22;;;;;;;;;;;;;;;;;;4858963;29;20055;-69
2022/10/26 02:03:03;;;;;;;10.93;4.15;;;;;;;;;;4935199;29;20033;-69
2022/10/26 02:05:48;;;;;;;9.95;4.55;;;;;;;;;;4946924;28;20452;-70
2022/10/26 02:08:30;;;;;;;12.30;4.10;;;;;;;;;;4993246;28;20122;-70
2022/10/26 02:11:31;;;;;;;13.15;4.10;;;;;;;;;;4992959;28;20062;-70
2022/10/26 02:14:19;;;;;;;10.80;4.07;;;;;;;;;;4960103;28;20047;-70
2022/10/26 02:17:01;;;;;;;13.68;3.92;;;;;;;;;;4960720;28;20054;-69
2022/10/26 02:20:03;;;;;;;15.27;3.65;;;;;;;;;;4992821;28;20127;-70
2022/10/26 02:22:39;;;;;;;15.35;3.80;;;;;;;;;;4903417;29;20060;-68
2022/10/26 02:25:16;;;;;;;7.80;3.58;;;;;;;;;;4934783;29;20056;-69
2022/10/26 02:27:53;;;;;;;11.10;4.15;;;;;;;;;;4947009;28;20507;-69
2022/10/26 02:30:24;;;;;;;23.25;3.50;;;;;;;;;;4940034;29;20056;-69
2022/10/26 02:32:56;;;;;;;10.30;3.38;;;;;;;;;;4938095;29;20055;-69
2022/10/26 02:35:30;;;;;;;13.85;4.03;;;;;;;;;;4953852;29;20068;-67
2022/10/26 02:38:05;;;;;;;12.45;3.92;;;;;;;;;;4952941;28;20055;-69
2022/10/26 02:40:36;;;;;;;9.43;4.13;;;;;;;;;;4953576;29;20066;-70
2022/10/26 02:43:12;;;;;;;8.93;3.72;;;;;;;;;;4953435;29;20089;-69
2022/10/26 02:45:57;;;;;;;7.80;3.75;;;;;;;;;;4906044;29;20058;-70
2022/10/26 02:48:27;;;;;;;8.32;3.17;;;;;;;;;;4922382;29;20063;-69
2022/10/26 02:51:04;;;;;;;8.15;3.20;;;;;;;;;;4906102;29;20055;-69
2022/10/26 02:53:40;;;;;;;12.07;3.83;;;;;;;;;;4921660;29;20068;-69
2022/10/26 02:56:25;;;;;;;10.32;4.10;;;;;;;;;;4914845;29;20052;-69
2022/10/26 02:59:02;;;;;;;12.43;3.20;;;;;;;;;;4900884;29;20098;-69
2022/10/26 03:01:34;;;;;;;9.82;3.35;;;;;;;;;;4920809;29;20058;-69
2022/10/26 03:04:04;;;;;;;13.70;4.20;;;;;;;;;;4953116;29;20452;-69
2022/10/26 03:06:35;;;;;;;8.15;3.65;;;;;;;;;;4953200;28;20056;-70
2022/10/26 03:09:05;;;;;;;7.82;3.83;;;;;;;;;;4971596;28;20054;-70
2022/10/26 03:11:35;;;;;;;15.10;3.72;;;;;;;;;;4988303;28;20047;-70
2022/10/26 03:14:05;;;;;;;10.48;3.28;;;;;;;;;;4972352;28;20054;-71
2022/10/26 03:16:35;;;;;;;13.10;3.65;;;;;;;;;;5006419;28;20046;-71
2022/10/26 03:19:05;;;;;;;17.33;3.92;;;;;;;;;;5011126;28;20521;-70
2022/10/26 03:21:35;;;;;;;16.75;3.63;;;;;;;;;;5011116;28;20549;-72
2022/10/26 03:24:05;;;;;;;11.88;3.60;;;;;;;;;;4995141;28;20053;-71
2022/10/26 03:26:35;;;;;;;8.82;3.63;;;;;;;;;;5010817;28;20057;-71
2022/10/26 03:29:05;;;;;;;7.15;3.58;;;;;;;;;;5011037;28;20093;-71
2022/10/26 03:31:34;;;;;;;13.25;3.70;;;;;;;;;;5011078;28;20537;-71
2022/10/26 03:34:04;;;;;;;9.57;4.03;;;;;;;;;;5016200;28;20065;-71
2022/10/26 03:36:34;;;;;;;11.05;3.42;;;;;;;;;;5030862;28;20519;-72
2022/10/26 03:39:04;;;;;;;10.82;4.10;;;;;;;;;;5032983;28;20056;-72
2022/10/26 03:41:35;;;;;;;7.60;3.28;;;;;;;;;;5047786;28;20532;-72
2022/10/26 03:44:05;;;;;;;10.88;3.70;;;;;;;;;;5032866;28;20053;-72
2022/10/26 03:46:36;;;;;;;14.20;4.95;;;;;;;;;;4998487;28;20385;-70
2022/10/26 03:49:06;;;;;;;8.98;3.42;;;;;;;;;;5046418;28;20058;-70
2022/10/26 03:51:36;;;;;;;11.30;3.65;;;;;;;;;;5032613;28;20045;-70
2022/10/26 03:54:06;;;;;;;9.02;3.80;;;;;;;;;;5032583;28;20056;-70
2022/10/26 03:56:36;;;;;;;9.10;3.72;;;;;;;;;;5032803;28;20053;-70
2022/10/26 03:59:06;;;;;;;8.75;3.60;;;;;;;;;;5032753;28;20045;-70
2022/10/26 04:01:35;;;;;;;11.13;4.22;;;;;;;;;;5032457;28;20054;-70
2022/10/26 04:04:05;;;;;;;7.70;2.90;;;;;;;;;;4997859;28;20046;-70
2022/10/26 04:06:36;;;;;;;10.45;3.08;;;;;;;;;;4997593;28;20058;-70
2022/10/26 04:09:07;;;;;;;10.05;3.30;;;;;;;;;;5013868;28;20046;-70
2022/10/26 04:11:37;;;;;;;10.05;3.78;;;;;;;;;;5047032;28;20049;-70
2022/10/26 04:14:07;;;;;;;8.98;3.05;;;;;;;;;;5032585;28;20049;-70
2022/10/26 04:16:36;;;;;;;8.68;2.97;;;;;;;;;;5030154;28;20049;-70
2022/10/26 04:19:06;;;;;;;7.35;3.17;;;;;;;;;;4997503;28;20049;-71
2022/10/26 04:21:37;;;;;;;10.00;2.90;;;;;;;;;;5032763;28;20121;-70
2022/10/26 04:24:07;;;;;;;11.75;3.10;;;;;;;;;;5029874;28;20053;-70
2022/10/26 04:26:37;;;;;;;10.50;3.40;;;;;;;;;;5032315;28;20502;-70
2022/10/26 04:29:08;;;;;;;7.53;3.20;;;;;;;;;;5032179;28;20041;-71
2022/10/26 04:31:38;;;;;;;8.57;2.83;;;;;;;;;;5046229;28;20064;-70
2022/10/26 04:34:08;;;;;;;13.63;3.25;;;;;;;;;;5031908;28;20508;-70
2022/10/26 04:36:40;;;;;;;8.85;3.33;;;;;;;;;;5032199;28;20041;-70
2022/10/26 04:39:10;;;;;;;14.05;3.42;;;;;;;;;;5032052;28;20049;-70
2022/10/26 04:41:39;;;;;;;13.02;3.38;;;;;;;;;;5032206;28;20049;-70
2022/10/26 04:44:09;;;;;;;5.55;2.60;;;;;;;;;;4997073;28;20060;-70
2022/10/26 04:46:39;;;;;;;8.82;3.40;;;;;;;;;;5029926;28;20053;-71
2022/10/26 04:49:09;;;;;;;6.80;3.13;;;;;;;;;;5031958;28;20053;-72
2022/10/26 04:51:39;;;;;;;6.93;2.88;;;;;;;;;;4997167;28;20108;-71
2022/10/26 04:54:09;;;;;;;7.78;2.80;;;;;;;;;;5031822;28;20046;-71
2022/10/26 04:56:39;;;;;;;7.82;2.75;;;;;;;;;;5030611;28;20050;-71
2022/10/26 04:59:09;;;;;;;19.30;3.17;;;;;;;;;;5031908;28;20045;-70
2022/10/26 05:01:39;;;;;;;8.70;2.80;;;;;;;;;;5052446;28;20053;-72
2022/10/26 05:04:09;;;;;;;7.75;3.45;;;;;;;;;;5053311;28;20467;-71
2022/10/26 05:06:39;;;;;;;6.97;2.45;;;;;;;;;;5036584;28;20049;-70
2022/10/26 05:09:09;;;;;;;9.23;3.25;;;;;;;;;;5053350;28;20053;-70
2022/10/26 05:11:40;;;;;;;11.18;3.03;;;;;;;;;;5053447;28;20647;-71
2022/10/26 05:14:12;;;;;;;6.53;3.15;;;;;;;;;;5003881;28;20541;-71
2022/10/26 05:16:43;;;;;;;6.72;3.03;;;;;;;;;;5016844;28;20054;-70
2022/10/26 05:19:13;;;;;;;6.05;2.90;;;;;;;;;;5033332;28;20464;-72
2022/10/26 05:21:43;;;;;;;9.75;2.65;;;;;;;;;;5033123;28;20061;-71
2022/10/26 05:24:19;;;;;;;7.35;2.63;;;;;;;;;;4986406;28;20053;-71
2022/10/26 05:26:49;;;;;;;8.98;3.15;;;;;;;;;;5016304;28;20084;-71
2022/10/26 05:29:19;;;;;;;7.13;2.63;;;;;;;;;;5000541;28;20096;-72
2022/10/26 05:31:48;;;;;;;12.30;2.97;;;;;;;;;;5000008;28;20468;-72
2022/10/26 05:34:18;;;;;;;7.80;2.92;;;;;;;;;;4983790;28;20524;-72
2022/10/26 05:36:53;;;;;;;6.38;2.75;;;;;;;;;;5000292;28;20072;-73
2022/10/26 05:39:23;;;;;;;6.57;2.40;;;;;;;;;;4982671;28;20404;-72
2022/10/26 05:41:53;;;;;;;8.38;3.15;;;;;;;;;;4974061;28;20055;-72
2022/10/26 05:44:22;;;;;;;5.68;2.65;;;;;;;;;;4974028;28;20051;-72
2022/10/26 05:46:53;;;;;;;6.40;2.78;;;;;;;;;;4973209;28;20062;-72
2022/10/26 05:49:22;;;;;;;8.13;2.80;;;;;;;;;;4973835;28;20065;-73
2022/10/26 05:51:52;;;;;;;9.60;2.90;;;;;;;;;;4957692;28;20442;-72
2022/10/26 05:54:23;;;;;;;5.53;2.88;;;;;;;;;;4961823;28;20080;-72
2022/10/26 05:56:54;;;;;;;7.88;2.75;;;;;;;;;;4963536;28;20533;-72
2022/10/26 05:59:24;;;;;;;11.60;3.13;;;;;;;;;;5012665;28;20398;-71
2022/10/26 06:02:03;;;;;;;8.85;2.95;;;;;;;;;;5013185;28;20054;-72
2022/10/26 06:04:53;;;;;;;5.10;2.50;;;;;;;;;;5012629;28;20049;-73
2022/10/26 06:07:24;;;;;;;10.70;3.78;;;;;;;;;;5012322;28;20449;-73
2022/10/26 06:09:54;;;;;;;5.38;3.10;;;;;;;;;;5012704;28;20461;-72
2022/10/26 06:12:25;;;;;;;13.55;3.33;;;;;;;;;;4995171;28;20405;-73
2022/10/26 06:14:55;;;;;;;5.40;2.63;;;;;;;;;;4995785;28;20065;-73
2022/10/26 06:17:57;;;;;;;5.65;2.60;;;;;;;;;;4987320;28;20062;-73
2022/10/26 06:20:45;;;;;;;6.25;2.63;;;;;;;;;;5034321;28;20048;-73
2022/10/26 06:23:25;;;;;;;7.93;2.47;;;;;;;;;;5015882;28;20560;-73
2022/10/26 06:26:24;;;;;;;9.13;2.63;;;;;;;;;;5034355;28;20044;-73
2022/10/26 06:29:19;;;;;;;6.93;2.78;;;;;;;;;;5012000;28;20057;-73
2022/10/26 06:31:49;;;;;;;9.20;2.60;;;;;;;;;;4963485;28;20065;-73
2022/10/26 06:34:27;;;;;;;6.80;3.38;;;;;;;;;;4947004;28;20061;-73
2022/10/26 06:36:58;;;;;;;6.05;2.53;;;;;;;;;;4963123;28;20060;-73
2022/10/26 06:39:35;;;;;;;5.20;2.53;;;;;;;;;;4979202;28;20502;-72
2022/10/26 06:42:06;;;;;;;6.20;2.65;;;;;;;;;;4980138;28;20410;-72
2022/10/26 06:44:36;;;;;;;8.70;3.05;;;;;;;;;;4979337;28;20049;-72
2022/10/26 06:47:07;;;;;;;4.53;2.53;;;;;;;;;;5011649;28;20053;-72
2022/10/26 06:50:12;;;;;;;5.47;2.45;;;;;;;;;;4995675;28;20057;-72
2022/10/26 06:52:53;;;;;;;6.25;2.70;;;;;;;;;;5011840;28;20049;-71
2022/10/26 06:55:25;;;;;;;6.07;3.05;;;;;;;;;;4972414;28;20411;-72
2022/10/26 06:57:55;;;;;;;7.63;2.95;;;;;;;;;;4972748;28;20159;-72
2022/10/26 07:00:27;;;;;;;6.63;2.45;;;;;;;;;;4972515;28;20450;-70
2022/10/26 07:02:58;;;;;;;7.45;2.88;;;;;;;;;;4972576;28;20050;-70
2022/10/26 07:05:29;;;;;;;7.90;2.70;;;;;;;;;;4977717;28;20078;-72
2022/10/26 07:07:58;;;;;;;5.38;3.33;;;;;;;;;;4975559;28;20082;-73
2022/10/26 07:10:28;;;;;;;6.40;2.85;;;;;;;;;;4975894;28;20090;-73
2022/10/26 07:12:59;;;;;;;5.07;2.40;;;;;;;;;;4991836;28;20073;-72
2022/10/26 07:15:29;;;;;;;4.38;2.33;;;;;;;;;;4976069;28;20053;-72
2022/10/26 07:18:00;;;;;;;4.95;2.20;;;;;;;;;;4991729;28;20055;-72
2022/10/26 07:20:29;;;;;;;5.95;2.63;;;;;;;;;;4991507;28;20061;-73
2022/10/26 07:22:59;;;;;;;5.03;2.80;;;;;;;;;;4991790;28;20061;-72
2022/10/26 07:25:29;;;;;;;7.25;2.90;;;;;;;;;;4991365;28;20058;-72
2022/10/26 07:28:00;;;;;;;5.25;2.40;;;;;;;;;;4974615;28;20808;-72
2022/10/26 07:30:30;;;;;;;9.63;2.70;;;;;;;;;;4995206;28;20054;-73
2022/10/26 07:33:13;;;;;;;9.00;2.92;;;;;;;;;;4995260;28;20508;-73
2022/10/26 07:35:44;;;;;;;5.70;2.63;;;;;;;;;;5033171;28;20037;-73
2022/10/26 07:38:14;;;;;;;6.15;2.58;;;;;;;;;;5030496;28;20148;-73
2022/10/26 07:40:44;;;;;;;5.82;2.45;;;;;;;;;;5030337;28;20050;-73
2022/10/26 07:43:14;;;;;;;5.43;2.70;;;;;;;;;;5030678;28;20065;-73
2022/10/26 07:45:48;;;;;;;8.07;3.15;;;;;;;;;;4997738;28;20054;-73
2022/10/26 07:48:18;;;;;;;5.70;2.80;;;;;;;;;;5030533;28;20041;-73
2022/10/26 07:50:49;;;;;;;7.63;3.17;;;;;;;;;;5030322;28;20057;-73
2022/10/26 07:53:19;;;;;;;7.85;4.07;;;;;;;;;;5030607;28;20049;-73
2022/10/26 07:55:56;;;;;;;6.40;3.33;;;;;;;;;;5030216;28;20061;-73
2022/10/26 07:58:27;;;;;;;5.30;2.75;;;;;;;;;;5030369;28;20050;-73
2022/10/26 08:00:57;;;;;;;5.13;2.63;;;;;;;;;;5010410;28;20061;-74
2022/10/26 08:03:27;;;;;;;6.03;2.70;;;;;;;;;;5010887;28;20509;-73
2022/10/26 08:05:57;;;;;;;5.97;3.25;;;;;;;;;;4994947;28;20061;-74
2022/10/26 08:08:26;;;;;;;8.48;2.75;;;;;;;;;;5014648;28;20065;-72
2022/10/26 08:10:57;;;;;;;5.53;2.72;;;;;;;;;;4999726;28;20061;-73
2022/10/26 08:13:28;;;;;;;9.32;2.92;;;;;;;;;;4984753;28;20065;-73
2022/10/26 08:16:00;;;;;;;6.53;2.97;;;;;;;;;;4947149;28;20057;-73
2022/10/26 08:18:32;;;;;;;6.10;3.10;;;;;;;;;;5035106;28;20497;-74
2022/10/26 08:21:07;;;;;;;6.60;3.10;;;;;;;;;;5032422;28;20203;-73
2022/10/26 08:23:41;;;;;;;11.05;3.17;;;;;;;;;;5035287;28;20540;-73
2022/10/26 08:26:12;;;;;;;6.75;2.67;;;;;;;;;;5000262;28;20069;-73
2022/10/26 08:28:42;;;;;;;5.32;2.95;;;;;;;;;;5030039;28;20053;-72
2022/10/26 08:31:11;;;;;;;9.80;3.08;;;;;;;;;;5029780;28;20054;-73
2022/10/26 08:33:41;;;;;;;7.05;2.88;;;;;;;;;;4996920;28;20161;-73
2022/10/26 08:36:22;;;;;;;5.53;3.20;;;;;;;;;;5009303;28;20061;-72
2022/10/26 08:38:52;;;;;;;9.13;3.97;;;;;;;;;;5029391;28;20049;-73
2022/10/26 08:41:46;;;;;;;13.07;5.10;;;;;;;;;;4996372;28;20053;-73
2022/10/26 08:44:30;;;;;;;9.68;3.60;;;;;;;;;;4938224;28;20055;-73
2022/10/26 08:47:13;;;;;;;6.97;3.30;;;;;;;;;;4970731;28;20055;-73
2022/10/26 08:49:57;;;;;;;6.75;3.25;;;;;;;;;;4970727;28;20063;-72
2022/10/26 08:52:39;;;;;;;9.65;3.05;;;;;;;;;;4970895;28;20047;-72
2022/10/26 08:55:16;;;;;;;7.22;3.38;;;;;;;;;;4955111;28;20686;-72
2022/10/26 08:57:48;;;;;;;6.25;2.67;;;;;;;;;;4938765;28;20059;-73
2022/10/26 09:00:22;;;;;;;6.07;2.75;;;;;;;;;;4938564;28;20503;-73
2022/10/26 09:02:53;;;;;;;6.97;2.75;;;;;;;;;;4970579;28;20061;-73
2022/10/26 09:05:37;;;;;;;5.75;2.70;;;;;;;;;;4967209;28;20067;-72
2022/10/26 09:08:35;;;;;;;7.60;3.05;;;;;;;;;;4935366;29;20075;-72
2022/10/26 09:11:17;;;;;;;7.35;2.78;;;;;;;;;;4875718;29;20061;-74
2022/10/26 09:14:10;;;;;;;5.45;2.70;;;;;;;;;;4875762;29;20068;-72
2022/10/26 09:16:49;;;;;;;6.80;3.00;;;;;;;;;;4836408;29;20077;-73
2022/10/26 09:19:30;;;;;;;5.88;3.50;;;;;;;;;;4820754;29;20418;-73
2022/10/26 09:22:23;;;;;;;6.38;3.60;;;;;;;;;;4861952;29;20409;-73
2022/10/26 09:24:55;;;;;;;6.32;2.85;;;;;;;;;;4875548;29;20069;-72
2022/10/26 09:27:31;;;;;;;7.57;3.25;;;;;;;;;;4844125;29;21053;-72
2022/10/26 09:30:14;;;;;;;6.20;3.05;;;;;;;;;;4860003;29;20072;-72
2022/10/26 09:32:50;;;;;;;7.40;3.10;;;;;;;;;;4875916;29;20068;-72
2022/10/26 09:35:24;;;;;;;6.80;3.33;;;;;;;;;;4859885;29;20064;-73
2022/10/26 09:38:03;;;;;;;10.98;3.20;;;;;;;;;;4875644;29;20057;-72
2022/10/26 09:40:46;;;;;;;6.63;2.90;;;;;;;;;;4875393;29;20064;-72
2022/10/26 09:43:20;;;;;;;7.18;3.22;;;;;;;;;;4864040;29;20053;-72
2022/10/26 09:45:52;;;;;;;6.68;3.05;;;;;;;;;;4857051;29;20064;-72
2022/10/26 09:48:53;;;;;;;6.55;3.38;;;;;;;;;;4897729;29;20055;-72
2022/10/26 09:51:26;;;;;;;11.07;3.45;;;;;;;;;;4897510;29;20061;-72
2022/10/26 09:54:00;;;;;;;7.65;2.78;;;;;;;;;;4904377;29;20056;-71
2022/10/26 09:56:31;;;;;;;6.82;2.95;;;;;;;;;;4916218;29;20572;-72
2022/10/26 09:59:05;;;;;;;6.97;3.05;;;;;;;;;;4884928;29;20068;-73
2022/10/26 10:01:36;;;;;;;5.57;3.00;;;;;;;;;;4934817;28;20058;-72
2022/10/26 10:04:15;;;;;;;7.65;3.47;;;;;;;;;;4973604;28;20073;-72
2022/10/26 10:06:50;;;;;;;5.93;2.80;;;;;;;;;;4973679;28;20248;-73
2022/10/26 10:09:22;;;;;;;8.95;3.33;;;;;;;;;;4941193;28;20832;-73
2022/10/26 10:12:01;;;;;;;8.25;3.13;;;;;;;;;;4973711;28;20057;-70
2022/10/26 10:14:42;;;;;;;6.95;2.83;;;;;;;;;;4957507;28;20074;-73
2022/10/26 10:17:24;;;;;;;6.07;2.50;;;;;;;;;;4918555;29;20063;-73
2022/10/26 10:19:54;;;;;;;6.20;3.05;;;;;;;;;;4934689;29;20413;-72
2022/10/26 10:22:26;;;;;;;7.97;3.33;;;;;;;;;;4934628;29;20397;-72
2022/10/26 10:25:02;;;;;;;6.03;2.67;;;;;;;;;;4887867;29;20059;-71
2022/10/26 10:27:33;;;;;;;9.38;3.58;;;;;;;;;;4889686;28;20436;-72
2022/10/26 10:30:22;;;;;;;5.88;2.42;;;;;;;;;;4972714;28;20066;-73
2022/10/26 10:33:11;;;;;;;5.35;2.83;;;;;;;;;;4973200;28;20090;-74
2022/10/26 10:35:50;;;;;;;21.92;12.07;;;;;;;;;;4972802;28;20058;-73
2022/10/26 10:38:21;;;;;;;7.10;3.83;;;;;;;;;;4972894;28;20530;-74
2022/10/26 10:40:57;;;;;;;7.00;2.83;;;;;;;;;;4957032;28;20062;-73
2022/10/26 10:43:27;;;;;;;4.55;2.63;;;;;;;;;;4972957;28;20800;-75
2022/10/26 10:45:58;;;;;;;7.13;2.95;;;;;;;;;;4940579;28;20070;-74
2022/10/26 10:48:30;;;;;;;10.13;2.45;;;;;;;;;;4972809;28;20062;-74
2022/10/26 10:51:16;;;;;;;7.28;3.30;;;;;;;;;;4940676;28;20506;-71
2022/10/26 10:53:57;;;;;;;5.57;2.72;;;;;;;;;;4942157;28;20620;-74
2022/10/26 10:57:34;;;;;;;3.85;2.20;;;;;;;;;;4994327;28;20046;-74
2022/10/26 11:00:08;;;;;;;6.97;2.50;;;;;;;;;;4934077;29;20071;-74
2022/10/26 11:03:13;;;;;;;5.60;2.38;;;;;;;;;;4934223;29;20074;-76
2022/10/26 11:06:08;;;;;;;8.65;2.55;;;;;;;;;;4918064;29;20059;-75
2022/10/26 11:09:04;;;;;;;6.13;3.05;;;;;;;;;;4907853;29;20049;-74
2022/10/26 11:11:41;;;;;;;5.18;2.50;;;;;;;;;;4861750;29;20429;-73
2022/10/26 11:14:30;;;;;;;6.43;2.55;;;;;;;;;;4877346;29;20410;-73
2022/10/26 11:17:17;;;;;;;6.32;2.50;;;;;;;;;;4877629;29;20072;-75
2022/10/26 11:20:15;;;;;;;5.47;2.88;;;;;;;;;;4892700;29;20061;-75
2022/10/26 11:23:14;;;;;;;6.55;3.00;;;;;;;;;;4914444;29;20063;-73
2022/10/26 11:25:59;;;;;;;8.35;2.85;;;;;;;;;;4901581;29;20523;-75
2022/10/26 11:28:44;;;;;;;8.88;3.10;;;;;;;;;;4898898;29;20060;-72
2022/10/26 11:31:24;;;;;;;8.38;2.72;;;;;;;;;;4945472;29;20638;-73
2022/10/26 11:33:57;;;;;;;5.97;2.60;;;;;;;;;;4952693;29;20055;-73
2022/10/26 11:36:31;;;;;;;7.47;3.22;;;;;;;;;;4932085;28;20062;-73
2022/10/26 11:39:25;;;;;;;7.30;2.47;;;;;;;;;;4952519;29;20063;-74
2022/10/26 11:42:08;;;;;;;4.47;2.50;;;;;;;;;;4917208;29;20052;-75
2022/10/26 11:44:41;;;;;;;5.72;2.20;;;;;;;;;;4933038;29;20051;-70
2022/10/26 11:47:41;;;;;;;4.90;2.38;;;;;;;;;;4967286;28;20058;-71
2022/10/26 11:50:23;;;;;;;5.95;2.30;;;;;;;;;;4971917;28;20435;-73
2022/10/26 11:53:25;;;;;;;4.93;2.25;;;;;;;;;;4971618;28;20060;-73
2022/10/26 11:55:57;;;;;;;4.72;2.03;;;;;;;;;;4920264;29;20051;-74
2022/10/26 11:58:29;;;;;;;7.25;2.40;;;;;;;;;;4936654;29;20389;-69
2022/10/26 12:01:10;;;;;;;4.32;1.85;;;;;;;;;;4921226;29;20071;-74
2022/10/26 12:03:47;;;;;;;4.70;2.13;;;;;;;;;;4935892;29;20496;-73
2022/10/26 12:06:26;;;;;;;4.38;2.75;;;;;;;;;;4952284;29;20059;-74
2022/10/26 12:09:18;;;;;;;4.90;2.03;;;;;;;;;;4932904;29;20052;-75
2022/10/26 12:12:13;;;;;;;6.60;2.13;;;;;;;;;;4947782;29;20523;-69
2022/10/26 12:15:09;;;;;;;4.22;1.95;;;;;;;;;;4885637;29;20063;-71
2022/10/26 12:17:52;;;;;;;5.30;1.95;;;;;;;;;;4950394;29;20063;-74
2022/10/26 12:20:34;;;;;;;3.83;1.95;;;;;;;;;;4939091;28;20059;-74
2022/10/26 12:23:09;;;;;;;4.43;1.90;;;;;;;;;;4951970;28;20062;-71
2022/10/26 12:26:13;;;;;;;;;;;;;;;;;;4936280;29;20060;-68
2022/10/26 12:28:43;;;;;;;5.82;1.88;;;;;;;;;;4951484;28;19922;-70
2022/10/26 12:31:37;;;;;;;5.53;2.10;;;;;;;;;;4967907;28;20538;-70
2022/10/26 12:34:21;;;;;;;3.97;2.45;;;;;;;;;;4986051;28;20422;-70
2022/10/26 12:36:54;;;;;;;7.70;2.28;;;;;;;;;;4990291;28;20434;-74
2022/10/26 12:39:33;;;;;;;3.72;2.08;;;;;;;;;;4990289;28;20502;-68
2022/10/26 12:42:06;;;;;;;5.10;2.00;;;;;;;;;;4974067;28;20062;-71
2022/10/26 12:44:39;;;;;;;6.25;2.00;;;;;;;;;;4990543;28;20069;-74
2022/10/26 12:47:29;;;;;;;5.13;2.92;;;;;;;;;;5020862;28;20060;-72
2022/10/26 12:50:05;;;;;;;;;;;;;;;;;;5014133;28;20501;-71
2022/10/26 12:53:08;;;;;;;5.63;2.88;;;;;;;;;;5049436;28;20293;-73
2022/10/26 12:55:55;;;;;;;3.70;2.15;;;;;;;;;;5016323;28;20060;-73
2022/10/26 12:58:31;;;;;;;4.82;2.47;;;;;;;;;;5049678;28;20061;-73
2022/10/26 13:01:02;;;;;;;4.13;2.40;;;;;;;;;;5032688;28;20049;-74
2022/10/26 13:03:53;;;;;;;4.40;2.40;;;;;;;;;;5045304;28;20052;-75
2022/10/26 13:06:30;;;;;;;5.22;2.78;;;;;;;;;;4996633;28;20532;-71
2022/10/26 13:09:19;;;;;;;4.28;2.00;;;;;;;;;;5029249;28;20424;-70
2022/10/26 13:11:54;;;;;;;5.15;2.05;;;;;;;;;;5029479;28;20058;-74
2022/10/26 13:14:45;;;;;;;3.65;1.98;;;;;;;;;;5029285;28;20057;-73
2022/10/26 13:17:25;;;;;;;3.50;1.92;;;;;;;;;;4996301;28;20575;-70
2022/10/26 13:19:58;;;;;;;5.32;2.10;;;;;;;;;;5029383;28;20545;-72
2022/10/26 13:22:30;;;;;;;4.43;2.00;;;;;;;;;;4999310;28;20174;-68
2022/10/26 13:25:04;;;;;;;6.72;1.80;;;;;;;;;;5033141;28;20045;-68
2022/10/26 13:27:34;;;;;;;2.63;1.55;;;;;;;;;;5032610;28;20049;-71
2022/10/26 13:30:04;;;;;;;2.92;1.60;;;;;;;;;;4999774;28;20061;-72
2022/10/26 13:32:41;;;;;;;8.07;2.72;;;;;;;;;;5033037;28;20413;-74
2022/10/26 13:35:14;;;;;;;4.10;1.90;;;;;;;;;;5033084;28;20058;-73
2022/10/26 13:37:47;;;;;;;3.03;1.50;;;;;;;;;;5032681;28;20053;-70
2022/10/26 13:40:22;;;;;;;6.32;2.05;;;;;;;;;;5033210;28;20053;-72
2022/10/26 13:42:59;;;;;;;3.63;1.42;;;;;;;;;;5034930;28;20528;-67
2022/10/26 13:45:55;;;;;;;3.55;1.25;;;;;;;;;;5016861;28;20409;-67
2022/10/26 13:48:45;;;;;;;2.70;1.42;;;;;;;;;;4993287;28;20058;-70
2022/10/26 13:51:22;;;;;;;2.67;1.40;;;;;;;;;;4978066;28;20054;-70
2022/10/26 13:53:55;;;;;;;4.43;1.60;;;;;;;;;;4961709;28;20062;-68
2022/10/26 13:56:40;;;;;;;5.93;1.48;;;;;;;;;;4993026;28;20046;-69
2022/10/26 13:59:12;;;;;;;4.50;1.33;;;;;;;;;;4993148;28;20054;-70
2022/10/26 14:01:43;;;;;;;4.35;1.42;;;;;;;;;;4993103;28;20054;-70
2022/10/26 14:04:17;;;;;;;3.72;1.63;;;;;;;;;;4960498;28;20513;-70
2022/10/26 14:06:52;;;;;;;5.65;1.48;;;;;;;;;;4946224;28;20054;-68
2022/10/26 14:09:23;;;;;;;3.25;1.80;;;;;;;;;;4992945;28;20414;-71
2022/10/26 14:12:00;;;;;;;2.58;2.03;;;;;;;;;;4960263;28;20391;-69
2022/10/26 14:14:34;;;;;;;2.53;1.40;;;;;;;;;;4929220;28;20058;-71
2022/10/26 14:17:05;;;;;;;2.72;1.38;;;;;;;;;;4915262;28;20521;-70
2022/10/26 14:19:40;;;;;;;4.47;1.45;;;;;;;;;;4960858;28;20062;-71
2022/10/26 14:22:23;;;;;;;3.90;1.48;;;;;;;;;;4993111;28;20522;-70
2022/10/26 14:24:58;;;;;;;4.45;1.60;;;;;;;;;;4955076;28;20061;-70
2022/10/26 14:27:38;;;;;;;2.03;1.20;;;;;;;;;;5034379;28;20050;-72
2022/10/26 14:30:31;;;;;;;2.20;1.50;;;;;;;;;;5034502;28;20041;-73
2022/10/26 14:33:20;;;;;;;5.00;1.80;;;;;;;;;;5033423;28;20045;-71
2022/10/26 14:35:50;;;;;;;4.35;1.20;;;;;;;;;;4999530;28;20060;-70
2022/10/26 14:38:30;;;;;;;4.55;1.60;;;;;;;;;;5034064;28;20049;-70
2022/10/26 14:41:01;;;;;;;3.47;1.20;;;;;;;;;;5034222;28;20044;-71
2022/10/26 14:43:31;;;;;;;3.85;1.20;;;;;;;;;;5049039;28;20042;-71
2022/10/26 14:46:01;;;;;;;1.95;1.10;;;;;;;;;;5034015;28;20045;-71
2022/10/26 14:48:34;;;;;;;2.85;1.27;;;;;;;;;;5015164;28;20053;-71
2022/10/26 14:51:11;;;;;;;4.90;1.13;;;;;;;;;;5015475;28;20057;-70
2022/10/26 14:53:49;;;;;;;1.48;0.90;;;;;;;;;;5033987;28;20056;-74
2022/10/26 14:56:22;;;;;;;1.83;1.20;;;;;;;;;;5032825;28;20045;-72
2022/10/26 14:58:53;;;;;;;5.32;1.50;;;;;;;;;;5015378;28;20050;-69
2022/10/26 15:01:24;;;;;;;5.38;1.20;;;;;;;;;;5065050;28;20050;-68
2022/10/26 15:04:01;;;;;;;4.15;1.20;;;;;;;;;;4998796;28;20057;-72
2022/10/26 15:06:36;;;;;;;5.03;1.40;;;;;;;;;;5031701;28;20555;-68
2022/10/26 15:09:26;;;;;;;2.42;1.20;;;;;;;;;;5033512;28;20045;-72
2022/10/26 15:11:56;;;;;;;6.55;1.27;;;;;;;;;;5033626;28;20049;-70
2022/10/26 15:14:27;;;;;;;3.78;1.25;;;;;;;;;;5015092;28;20057;-73
2022/10/26 15:16:58;;;;;;;3.33;1.00;;;;;;;;;;5047584;28;20061;-68
2022/10/26 15:19:28;;;;;;;;;;;;;;;;;;5048882;28;20046;-71
2022/10/26 15:21:58;;;;;;;2.13;1.23;;;;;;;;;;5047898;28;20312;-73
2022/10/26 15:24:34;;;;;;;3.90;1.25;;;;;;;;;;5033488;28;20037;-68
2022/10/26 15:27:16;;;;;;;3.33;1.80;;;;;;;;;;5063994;28;20437;-74
2022/10/26 15:29:49;;;;;;;2.65;1.30;;;;;;;;;;5033061;28;20053;-69
2022/10/26 15:32:32;;;;;;;4.90;1.90;;;;;;;;;;5014433;28;20406;-72
2022/10/26 15:35:13;;;;;;;4.13;1.30;;;;;;;;;;5032923;28;20056;-71